OIAA

Details ICAO OIAA (ABD)
Name ABADAN
Region Iran
Timezone Asia/Tehran (UTC+4.5)
Plans Departing 6
Arriving 16
Stats Elevation 19 ft / 6 m (AMSL)
Location 30.365179° 48.233170°
Runways 2
Magnetic Variation 3.782° E
Sunrise 2018-05-23 01:50:17 UTC / 2018-05-23 06:20:17 Local
Sunset 2018-05-23 15:40:11 UTC / 2018-05-23 20:10:11 Local
Advertisement - Login to hide

Runways

ID Width Length Bearing (true) Bearing (mag) Surface Threshold Offset Overrun Length
14L 115 ft / 35 m 7,442 ft / 2,268 m 144.73° 140.95° Asphalt 0 ft / 0 m 197 ft / 60 m
14R 148 ft / 45 m 10,191 ft / 3,106 m 144.72° 140.94° Asphalt 0 ft / 0 m 197 ft / 60 m
32L 148 ft / 45 m 10,191 ft / 3,106 m 324.73° 320.95° Asphalt 0 ft / 0 m 197 ft / 60 m
32R 115 ft / 35 m 7,442 ft / 2,268 m 324.73° 320.95° Asphalt 0 ft / 0 m 197 ft / 60 m

Map

Weather


0- 5 10 15 20 25 30 35+ Temperature / ° C

Clouds and Precipitation
Forecast for 2018-05-23 06:00 UTC. Updated 2 hours ago

Ground ~20,000 ft ~40,000 ft Winds

METAR

OIAA 230700Z 16004KT 6000 SCT040 38/11 Q1009

TAF

TAF TAF OIAA 230500Z 2306/2412 330

Frequencies

Recorded 126.85 MHz ATIS
Tower 118.10 MHz TWR
Tower 121.80 MHz TWR
Warning: Do not use this data for real-world aviation or navigation. No guarantee of current accuracy is given.